Airfield :
LOGIN :

Register | Disclaimer

   EN    FR    IT 

 










Legend :    VFR   Marginal VFR   IFR   Intensive IFR   Very Intensive IFR
Visi :
Ceiling :
>= 8 km
>= 3000ft
5 to 8 km
1000 to 3000 ft
1500m to 5 km
500 to 1000 ft
800 to 1500m
200 to 500 ft
< 800m
< 200 ft
Symbols :   Thunderstorms  Fog  Heavy snow  Heavy precipitations  Wind > 20 kt
SIGMETs :     Misc.  Thunderstorms  Icing  Turbulence  Mountain Waves  Volcanic Ashes






- Airport Elevation : 1768 ft


LEHC - Huesca Pirineos

CURRENT METAR :
  • 301530Z 24009KT 130V290 9999 FEW040 26/13 Q1013

EXPIRED METARs :
  • 301500Z 24007KT 9999 FEW040 26/12 Q1013
  • 301430Z 25007KT 9999 FEW040 26/13 Q1013
  • 301400Z 25008KT 190V330 9999 FEW040 25/12 Q1014
  • 301330Z 28008KT 190V360 9999 FEW040 26/13 Q1014
  • 301300Z VRB07KT 9999 FEW040 25/14 Q1014

TAF TAF LEHC
Valid from the 30 at 15:00 until the 01 at 15:00 UTC


301400Z 3015/0115 29009KT 9999 FEW040 TX31/0115Z TN11/0106Z
BECMG 0102/0104 VRB04KT



MET'MAP, your aeronautical weather chart ! - Copyright ORBIFLY December 2007 - Disclaimer

ORBIFLY MET'MAP TEAM :

Programming & Development : Alexandra Zaïnal
Original concept : Baudouin d'Aumeries
Technical & hardware support : Manuel Goepfert
Assistance : Marc-Olivier Méhu




SOURCES & CREDITS :

   NOAA